sensor_id;sensor_type;location;lat;lon;timestamp;P1;durP1;ratioP1;P2;durP2;ratioP2
60086;SDS011;45960;53.630;55.972;2023-07-29T00:00:47;14.18;;;7.32;;
60086;SDS011;45960;53.630;55.972;2023-07-29T00:01:48;16.25;;;7.57;;
60086;SDS011;45960;53.630;55.972;2023-07-29T00:02:49;17.42;;;7.38;;
60086;SDS011;45960;53.630;55.972;2023-07-29T00:03:51;15.45;;;7.82;;
60086;SDS011;45960;53.630;55.972;2023-07-29T00:04:51;13.45;;;7.43;;
60086;SDS011;45960;53.630;55.972;2023-07-29T00:05:52;17.98;;;7.57;;
60086;SDS011;45960;53.630;55.972;2023-07-29T00:06:54;15.23;;;7.88;;
60086;SDS011;45960;53.630;55.972;2023-07-29T00:07:55;26.25;;;7.85;;
60086;SDS011;45960;53.630;55.972;2023-07-29T00:08:56;16.77;;;7.43;;
60086;SDS011;45960;53.630;55.972;2023-07-29T00:09:57;20.02;;;7.75;;
60086;SDS011;45960;53.630;55.972;2023-07-29T00:10:58;18.10;;;8.02;;
60086;SDS011;45960;53.630;55.972;2023-07-29T00:11:59;14.15;;;7.68;;
60086;SDS011;45960;53.630;55.972;2023-07-29T00:13:00;16.85;;;7.88;;
60086;SDS011;45960;53.630;55.972;2023-07-29T00:14:01;20.10;;;7.50;;
60086;SDS011;45960;53.630;55.972;2023-07-29T00:15:02;15.80;;;7.43;;
60086;SDS011;45960;53.630;55.972;2023-07-29T00:16:05;16.48;;;7.32;;
60086;SDS011;45960;53.630;55.972;2023-07-29T00:17:06;16.55;;;7.75;;
60086;SDS011;45960;53.630;55.972;2023-07-29T00:18:07;14.02;;;6.95;;
60086;SDS011;45960;53.630;55.972;2023-07-29T00:19:08;13.95;;;6.85;;
60086;SDS011;45960;53.630;55.972;2023-07-29T00:20:09;14.00;;;6.95;;
60086;SDS011;45960;53.630;55.972;2023-07-29T00:21:10;13.93;;;7.03;;
60086;SDS011;45960;53.630;55.972;2023-07-29T00:22:12;15.77;;;7.03;;
60086;SDS011;45960;53.630;55.972;2023-07-29T00:23:12;9.52;;;6.70;;
60086;SDS011;45960;53.630;55.972;2023-07-29T00:24:13;17.58;;;7.75;;
60086;SDS011;45960;53.630;55.972;2023-07-29T00:25:15;15.57;;;8.25;;
60086;SDS011;45960;53.630;55.972;2023-07-29T00:26:16;20.90;;;8.63;;
60086;SDS011;45960;53.630;55.972;2023-07-29T00:27:18;21.80;;;8.82;;
60086;SDS011;45960;53.630;55.972;2023-07-29T00:28:19;14.55;;;7.50;;
60086;SDS011;45960;53.630;55.972;2023-07-29T00:29:20;14.40;;;8.20;;
60086;SDS011;45960;53.630;55.972;2023-07-29T00:30:21;12.27;;;7.53;;
60086;SDS011;45960;53.630;55.972;2023-07-29T00:31:21;15.63;;;7.57;;
60086;SDS011;45960;53.630;55.972;2023-07-29T00:32:27;16.90;;;7.93;;
60086;SDS011;45960;53.630;55.972;2023-07-29T00:33:30;14.75;;;7.97;;
60086;SDS011;45960;53.630;55.972;2023-07-29T00:34:31;14.57;;;7.65;;
60086;SDS011;45960;53.630;55.972;2023-07-29T00:35:32;18.92;;;7.93;;
60086;SDS011;45960;53.630;55.972;2023-07-29T00:36:34;18.33;;;8.55;;
60086;SDS011;45960;53.630;55.972;2023-07-29T00:37:35;19.73;;;8.45;;
60086;SDS011;45960;53.630;55.972;2023-07-29T00:38:39;17.25;;;7.88;;
60086;SDS011;45960;53.630;55.972;2023-07-29T00:39:40;20.95;;;8.02;;
60086;SDS011;45960;53.630;55.972;2023-07-29T00:40:43;18.83;;;8.10;;
60086;SDS011;45960;53.630;55.972;2023-07-29T00:41:44;19.35;;;8.25;;
60086;SDS011;45960;53.630;55.972;2023-07-29T00:42:45;13.60;;;7.72;;
60086;SDS011;45960;53.630;55.972;2023-07-29T00:43:46;17.90;;;8.20;;
60086;SDS011;45960;53.630;55.972;2023-07-29T00:44:47;16.25;;;6.97;;
60086;SDS011;45960;53.630;55.972;2023-07-29T00:45:48;13.25;;;8.60;;
60086;SDS011;45960;53.630;55.972;2023-07-29T00:46:51;14.35;;;7.75;;
60086;SDS011;45960;53.630;55.972;2023-07-29T00:47:54;19.58;;;7.90;;
60086;SDS011;45960;53.630;55.972;2023-07-29T00:48:55;17.48;;;8.50;;
60086;SDS011;45960;53.630;55.972;2023-07-29T00:49:59;15.48;;;7.82;;
60086;SDS011;45960;53.630;55.972;2023-07-29T00:51:00;13.65;;;7.88;;
60086;SDS011;45960;53.630;55.972;2023-07-29T00:52:02;15.52;;;7.72;;
60086;SDS011;45960;53.630;55.972;2023-07-29T00:53:03;16.40;;;8.55;;
60086;SDS011;45960;53.630;55.972;2023-07-29T00:54:04;17.92;;;8.60;;
60086;SDS011;45960;53.630;55.972;2023-07-29T00:55:05;23.90;;;8.55;;
60086;SDS011;45960;53.630;55.972;2023-07-29T00:56:07;15.73;;;7.97;;
60086;SDS011;45960;53.630;55.972;2023-07-29T00:57:08;14.40;;;7.68;;
60086;SDS011;45960;53.630;55.972;2023-07-29T00:58:12;17.70;;;8.35;;
60086;SDS011;45960;53.630;55.972;2023-07-29T00:59:13;18.38;;;8.68;;
60086;SDS011;45960;53.630;55.972;2023-07-29T01:00:14;15.35;;;8.82;;
60086;SDS011;45960;53.630;55.972;2023-07-29T01:01:16;20.40;;;8.40;;
60086;SDS011;45960;53.630;55.972;2023-07-29T01:02:18;15.27;;;7.25;;
60086;SDS011;45960;53.630;55.972;2023-07-29T01:03:19;14.70;;;7.55;;
60086;SDS011;45960;53.630;55.972;2023-07-29T01:04:20;12.60;;;7.78;;
60086;SDS011;45960;53.630;55.972;2023-07-29T01:05:21;14.32;;;8.43;;
60086;SDS011;45960;53.630;55.972;2023-07-29T01:08:55;15.30;;;8.57;;
60086;SDS011;45960;53.630;55.972;2023-07-29T01:10:03;13.18;;;8.40;;
60086;SDS011;45960;53.630;55.972;2023-07-29T01:11:25;17.00;;;8.90;;
60086;SDS011;45960;53.630;55.972;2023-07-29T01:13:06;18.30;;;9.25;;
60086;SDS011;45960;53.630;55.972;2023-07-29T01:16:56;22.58;;;11.02;;
60086;SDS011;45960;53.630;55.972;2023-07-29T01:18:08;19.27;;;10.50;;
60086;SDS011;45960;53.630;55.972;2023-07-29T01:19:41;16.83;;;11.00;;
60086;SDS011;45960;53.630;55.972;2023-07-29T01:20:46;19.50;;;12.25;;
60086;SDS011;45960;53.630;55.972;2023-07-29T01:21:48;22.52;;;13.70;;
60086;SDS011;45960;53.630;55.972;2023-07-29T01:22:51;28.95;;;15.00;;
60086;SDS011;45960;53.630;55.972;2023-07-29T01:23:52;25.52;;;14.02;;
60086;SDS011;45960;53.630;55.972;2023-07-29T01:24:54;26.70;;;13.45;;
60086;SDS011;45960;53.630;55.972;2023-07-29T01:25:55;22.98;;;13.02;;
60086;SDS011;45960;53.630;55.972;2023-07-29T01:26:56;24.92;;;13.95;;
60086;SDS011;45960;53.630;55.972;2023-07-29T01:27:57;30.58;;;14.15;;
60086;SDS011;45960;53.630;55.972;2023-07-29T01:28:59;26.67;;;14.98;;
60086;SDS011;45960;53.630;55.972;2023-07-29T01:30:00;28.40;;;14.43;;
60086;SDS011;45960;53.630;55.972;2023-07-29T01:31:13;19.02;;;10.65;;
60086;SDS011;45960;53.630;55.972;2023-07-29T01:33:48;23.23;;;12.18;;
60086;SDS011;45960;53.630;55.972;2023-07-29T01:35:00;20.92;;;12.10;;
60086;SDS011;45960;53.630;55.972;2023-07-29T01:36:07;25.88;;;11.30;;
60086;SDS011;45960;53.630;55.972;2023-07-29T01:37:15;18.23;;;10.40;;
60086;SDS011;45960;53.630;55.972;2023-07-29T01:38:24;18.58;;;10.07;;
60086;SDS011;45960;53.630;55.972;2023-07-29T01:39:35;19.48;;;10.23;;
60086;SDS011;45960;53.630;55.972;2023-07-29T01:40:38;22.00;;;8.63;;
60086;SDS011;45960;53.630;55.972;2023-07-29T01:41:41;13.02;;;7.32;;
60086;SDS011;45960;53.630;55.972;2023-07-29T01:42:44;11.90;;;7.15;;
60086;SDS011;45960;53.630;55.972;2023-07-29T01:43:47;13.40;;;7.15;;
60086;SDS011;45960;53.630;55.972;2023-07-29T01:44:49;13.45;;;6.75;;
60086;SDS011;45960;53.630;55.972;2023-07-29T01:45:50;15.32;;;7.07;;
60086;SDS011;45960;53.630;55.972;2023-07-29T01:46:51;14.48;;;7.45;;
60086;SDS011;45960;53.630;55.972;2023-07-29T01:47:52;14.88;;;7.03;;
60086;SDS011;45960;53.630;55.972;2023-07-29T01:48:53;11.93;;;6.03;;
60086;SDS011;45960;53.630;55.972;2023-07-29T01:49:54;11.35;;;7.55;;
60086;SDS011;45960;53.630;55.972;2023-07-29T01:50:56;12.32;;;6.70;;
60086;SDS011;45960;53.630;55.972;2023-07-29T01:51:57;12.80;;;6.95;;
60086;SDS011;45960;53.630;55.972;2023-07-29T01:52:58;13.65;;;6.60;;
60086;SDS011;45960;53.630;55.972;2023-07-29T01:53:59;15.77;;;6.93;;
60086;SDS011;45960;53.630;55.972;2023-07-29T01:55:01;12.82;;;5.93;;
60086;SDS011;45960;53.630;55.972;2023-07-29T01:56:02;9.77;;;5.85;;
60086;SDS011;45960;53.630;55.972;2023-07-29T01:57:03;16.35;;;6.38;;
60086;SDS011;45960;53.630;55.972;2023-07-29T01:58:04;15.35;;;6.93;;
60086;SDS011;45960;53.630;55.972;2023-07-29T01:59:09;18.60;;;6.05;;
60086;SDS011;45960;53.630;55.972;2023-07-29T02:00:10;11.18;;;6.03;;
60086;SDS011;45960;53.630;55.972;2023-07-29T02:01:18;11.18;;;5.30;;
60086;SDS011;45960;53.630;55.972;2023-07-29T02:02:19;11.40;;;6.15;;
60086;SDS011;45960;53.630;55.972;2023-07-29T02:03:20;10.18;;;6.47;;
60086;SDS011;45960;53.630;55.972;2023-07-29T02:04:21;12.93;;;5.85;;
60086;SDS011;45960;53.630;55.972;2023-07-29T02:05:23;16.83;;;6.82;;
60086;SDS011;45960;53.630;55.972;2023-07-29T02:06:24;10.65;;;6.07;;
60086;SDS011;45960;53.630;55.972;2023-07-29T02:07:25;12.82;;;6.22;;
60086;SDS011;45960;53.630;55.972;2023-07-29T02:08:27;10.00;;;5.85;;
60086;SDS011;45960;53.630;55.972;2023-07-29T02:09:28;15.02;;;6.50;;
60086;SDS011;45960;53.630;55.972;2023-07-29T02:10:31;55.63;;;7.90;;
60086;SDS011;45960;53.630;55.972;2023-07-29T02:11:32;23.90;;;7.65;;
60086;SDS011;45960;53.630;55.972;2023-07-29T02:12:33;13.30;;;6.32;;
60086;SDS011;45960;53.630;55.972;2023-07-29T02:13:36;22.67;;;6.85;;
60086;SDS011;45960;53.630;55.972;2023-07-29T02:14:37;14.32;;;6.10;;
60086;SDS011;45960;53.630;55.972;2023-07-29T02:15:38;12.23;;;6.35;;
60086;SDS011;45960;53.630;55.972;2023-07-29T02:16:39;14.55;;;6.25;;
60086;SDS011;45960;53.630;55.972;2023-07-29T02:18:00;20.00;;;6.57;;
60086;SDS011;45960;53.630;55.972;2023-07-29T02:19:02;10.55;;;6.03;;
60086;SDS011;45960;53.630;55.972;2023-07-29T02:20:03;12.35;;;6.28;;
60086;SDS011;45960;53.630;55.972;2023-07-29T02:21:05;9.75;;;6.38;;
60086;SDS011;45960;53.630;55.972;2023-07-29T02:22:06;12.13;;;6.57;;
60086;SDS011;45960;53.630;55.972;2023-07-29T02:23:07;15.90;;;6.65;;
60086;SDS011;45960;53.630;55.972;2023-07-29T02:24:08;16.65;;;6.70;;
60086;SDS011;45960;53.630;55.972;2023-07-29T02:25:09;14.63;;;6.85;;
60086;SDS011;45960;53.630;55.972;2023-07-29T02:26:10;12.43;;;6.53;;
60086;SDS011;45960;53.630;55.972;2023-07-29T02:27:11;18.23;;;6.88;;
60086;SDS011;45960;53.630;55.972;2023-07-29T02:28:12;10.73;;;6.85;;
60086;SDS011;45960;53.630;55.972;2023-07-29T02:29:13;16.05;;;7.20;;
60086;SDS011;45960;53.630;55.972;2023-07-29T02:30:14;11.07;;;6.70;;
60086;SDS011;45960;53.630;55.972;2023-07-29T02:31:23;11.38;;;6.55;;
60086;SDS011;45960;53.630;55.972;2023-07-29T02:32:25;17.15;;;7.10;;
60086;SDS011;45960;53.630;55.972;2023-07-29T02:33:26;15.45;;;7.25;;
60086;SDS011;45960;53.630;55.972;2023-07-29T02:34:27;9.70;;;6.85;;
60086;SDS011;45960;53.630;55.972;2023-07-29T02:35:28;20.75;;;7.60;;
60086;SDS011;45960;53.630;55.972;2023-07-29T02:36:29;17.35;;;6.43;;
60086;SDS011;45960;53.630;55.972;2023-07-29T02:37:31;15.00;;;6.78;;
60086;SDS011;45960;53.630;55.972;2023-07-29T02:38:32;14.45;;;7.35;;
60086;SDS011;45960;53.630;55.972;2023-07-29T02:39:33;12.50;;;7.00;;
60086;SDS011;45960;53.630;55.972;2023-07-29T02:40:34;14.45;;;6.82;;
60086;SDS011;45960;53.630;55.972;2023-07-29T02:41:35;12.95;;;6.80;;
60086;SDS011;45960;53.630;55.972;2023-07-29T02:42:36;9.77;;;6.28;;
60086;SDS011;45960;53.630;55.972;2023-07-29T02:43:39;12.30;;;6.97;;
60086;SDS011;45960;53.630;55.972;2023-07-29T02:44:42;16.02;;;6.65;;
60086;SDS011;45960;53.630;55.972;2023-07-29T02:45:43;18.75;;;7.47;;
60086;SDS011;45960;53.630;55.972;2023-07-29T02:46:44;11.85;;;7.15;;
60086;SDS011;45960;53.630;55.972;2023-07-29T02:47:45;13.93;;;6.85;;
60086;SDS011;45960;53.630;55.972;2023-07-29T02:48:47;17.60;;;6.57;;
60086;SDS011;45960;53.630;55.972;2023-07-29T02:49:48;12.65;;;7.00;;
60086;SDS011;45960;53.630;55.972;2023-07-29T02:50:49;14.60;;;7.45;;
60086;SDS011;45960;53.630;55.972;2023-07-29T02:51:50;15.48;;;7.25;;
60086;SDS011;45960;53.630;55.972;2023-07-29T02:52:51;15.32;;;7.53;;
60086;SDS011;45960;53.630;55.972;2023-07-29T02:53:52;15.48;;;7.90;;
60086;SDS011;45960;53.630;55.972;2023-07-29T02:54:53;18.02;;;8.40;;
60086;SDS011;45960;53.630;55.972;2023-07-29T02:55:54;11.00;;;6.85;;
60086;SDS011;45960;53.630;55.972;2023-07-29T02:56:55;22.02;;;7.80;;
60086;SDS011;45960;53.630;55.972;2023-07-29T02:57:57;21.00;;;7.63;;
60086;SDS011;45960;53.630;55.972;2023-07-29T02:58:58;15.15;;;6.57;;
60086;SDS011;45960;53.630;55.972;2023-07-29T03:00:00;10.75;;;6.60;;
60086;SDS011;45960;53.630;55.972;2023-07-29T03:01:02;15.52;;;7.82;;
60086;SDS011;45960;53.630;55.972;2023-07-29T03:02:04;11.73;;;7.10;;
60086;SDS011;45960;53.630;55.972;2023-07-29T03:03:05;18.58;;;8.13;;
60086;SDS011;45960;53.630;55.972;2023-07-29T03:04:06;15.57;;;6.72;;
60086;SDS011;45960;53.630;55.972;2023-07-29T03:05:08;14.15;;;7.68;;
60086;SDS011;45960;53.630;55.972;2023-07-29T03:06:10;11.77;;;6.80;;
60086;SDS011;45960;53.630;55.972;2023-07-29T03:07:12;13.32;;;7.50;;
60086;SDS011;45960;53.630;55.972;2023-07-29T03:08:13;13.65;;;6.70;;
60086;SDS011;45960;53.630;55.972;2023-07-29T03:09:14;12.50;;;7.45;;
60086;SDS011;45960;53.630;55.972;2023-07-29T03:10:15;15.38;;;7.53;;
60086;SDS011;45960;53.630;55.972;2023-07-29T03:11:16;16.27;;;7.65;;
60086;SDS011;45960;53.630;55.972;2023-07-29T03:12:18;13.05;;;6.93;;
60086;SDS011;45960;53.630;55.972;2023-07-29T03:13:20;13.77;;;6.72;;
60086;SDS011;45960;53.630;55.972;2023-07-29T03:14:21;15.52;;;8.18;;
60086;SDS011;45960;53.630;55.972;2023-07-29T03:15:25;15.07;;;7.45;;
60086;SDS011;45960;53.630;55.972;2023-07-29T03:16:26;19.85;;;8.15;;
60086;SDS011;45960;53.630;55.972;2023-07-29T03:17:29;13.07;;;7.95;;
60086;SDS011;45960;53.630;55.972;2023-07-29T03:18:30;12.18;;;7.28;;
60086;SDS011;45960;53.630;55.972;2023-07-29T03:19:31;13.05;;;8.43;;
60086;SDS011;45960;53.630;55.972;2023-07-29T03:20:32;11.35;;;6.85;;
60086;SDS011;45960;53.630;55.972;2023-07-29T03:21:33;10.63;;;7.53;;
60086;SDS011;45960;53.630;55.972;2023-07-29T03:22:34;12.70;;;7.18;;
60086;SDS011;45960;53.630;55.972;2023-07-29T03:23:36;14.15;;;7.38;;
60086;SDS011;45960;53.630;55.972;2023-07-29T03:24:37;13.38;;;7.65;;
60086;SDS011;45960;53.630;55.972;2023-07-29T03:25:38;9.35;;;6.50;;
60086;SDS011;45960;53.630;55.972;2023-07-29T03:26:39;15.10;;;7.28;;
60086;SDS011;45960;53.630;55.972;2023-07-29T03:27:40;13.35;;;8.13;;
60086;SDS011;45960;53.630;55.972;2023-07-29T03:28:42;12.77;;;7.35;;
60086;SDS011;45960;53.630;55.972;2023-07-29T03:29:43;18.00;;;7.93;;
60086;SDS011;45960;53.630;55.972;2023-07-29T03:30:44;16.35;;;9.13;;
60086;SDS011;45960;53.630;55.972;2023-07-29T03:31:47;16.75;;;8.55;;
60086;SDS011;45960;53.630;55.972;2023-07-29T03:32:48;14.45;;;9.05;;
60086;SDS011;45960;53.630;55.972;2023-07-29T03:33:50;18.83;;;8.15;;
60086;SDS011;45960;53.630;55.972;2023-07-29T03:34:51;13.75;;;7.90;;
60086;SDS011;45960;53.630;55.972;2023-07-29T03:35:52;15.15;;;8.38;;
60086;SDS011;45960;53.630;55.972;2023-07-29T03:36:53;14.73;;;7.47;;
60086;SDS011;45960;53.630;55.972;2023-07-29T03:37:54;14.60;;;8.20;;
60086;SDS011;45960;53.630;55.972;2023-07-29T03:38:55;17.85;;;7.72;;
60086;SDS011;45960;53.630;55.972;2023-07-29T03:39:57;19.80;;;8.13;;
60086;SDS011;45960;53.630;55.972;2023-07-29T03:40:58;14.70;;;7.60;;
60086;SDS011;45960;53.630;55.972;2023-07-29T03:41:59;11.57;;;7.40;;
60086;SDS011;45960;53.630;55.972;2023-07-29T03:43:00;14.23;;;6.80;;
60086;SDS011;45960;53.630;55.972;2023-07-29T03:44:01;16.25;;;8.00;;
60086;SDS011;45960;53.630;55.972;2023-07-29T03:45:02;19.42;;;7.80;;
60086;SDS011;45960;53.630;55.972;2023-07-29T03:46:04;12.70;;;7.40;;
60086;SDS011;45960;53.630;55.972;2023-07-29T03:47:07;13.73;;;7.32;;
60086;SDS011;45960;53.630;55.972;2023-07-29T03:48:08;15.80;;;7.30;;
60086;SDS011;45960;53.630;55.972;2023-07-29T03:49:10;13.55;;;7.15;;
60086;SDS011;45960;53.630;55.972;2023-07-29T03:50:11;24.13;;;7.55;;
60086;SDS011;45960;53.630;55.972;2023-07-29T03:51:12;13.23;;;7.13;;
60086;SDS011;45960;53.630;55.972;2023-07-29T03:52:13;14.23;;;6.88;;
60086;SDS011;45960;53.630;55.972;2023-07-29T03:53:15;12.55;;;7.10;;
60086;SDS011;45960;53.630;55.972;2023-07-29T03:54:16;12.52;;;7.15;;
60086;SDS011;45960;53.630;55.972;2023-07-29T03:55:17;10.23;;;6.60;;
60086;SDS011;45960;53.630;55.972;2023-07-29T03:56:18;13.73;;;6.55;;
60086;SDS011;45960;53.630;55.972;2023-07-29T03:57:19;12.65;;;7.10;;
60086;SDS011;45960;53.630;55.972;2023-07-29T03:58:20;9.82;;;6.93;;
60086;SDS011;45960;53.630;55.972;2023-07-29T03:59:21;14.23;;;6.38;;
60086;SDS011;45960;53.630;55.972;2023-07-29T04:00:24;12.40;;;6.18;;
60086;SDS011;45960;53.630;55.972;2023-07-29T04:01:25;19.95;;;7.82;;
60086;SDS011;45960;53.630;55.972;2023-07-29T04:02:26;18.63;;;8.07;;
60086;SDS011;45960;53.630;55.972;2023-07-29T04:03:27;14.35;;;6.85;;
60086;SDS011;45960;53.630;55.972;2023-07-29T04:04:29;15.20;;;7.03;;
60086;SDS011;45960;53.630;55.972;2023-07-29T04:05:31;15.13;;;7.13;;
60086;SDS011;45960;53.630;55.972;2023-07-29T04:06:31;13.80;;;6.90;;
60086;SDS011;45960;53.630;55.972;2023-07-29T04:07:33;15.52;;;6.88;;
60086;SDS011;45960;53.630;55.972;2023-07-29T04:08:35;13.70;;;7.22;;
60086;SDS011;45960;53.630;55.972;2023-07-29T04:09:36;14.10;;;6.15;;
60086;SDS011;45960;53.630;55.972;2023-07-29T04:10:37;11.57;;;6.32;;
60086;SDS011;45960;53.630;55.972;2023-07-29T04:11:38;11.70;;;6.47;;
60086;SDS011;45960;53.630;55.972;2023-07-29T04:12:39;10.98;;;6.78;;
60086;SDS011;45960;53.630;55.972;2023-07-29T04:13:40;9.82;;;5.85;;
60086;SDS011;45960;53.630;55.972;2023-07-29T04:14:41;10.32;;;6.15;;
60086;SDS011;45960;53.630;55.972;2023-07-29T04:15:43;13.50;;;5.63;;
60086;SDS011;45960;53.630;55.972;2023-07-29T04:16:44;13.48;;;6.22;;
60086;SDS011;45960;53.630;55.972;2023-07-29T04:17:46;18.48;;;7.20;;
60086;SDS011;45960;53.630;55.972;2023-07-29T04:18:46;12.07;;;6.25;;
60086;SDS011;45960;53.630;55.972;2023-07-29T04:19:48;15.07;;;6.32;;
60086;SDS011;45960;53.630;55.972;2023-07-29T04:20:48;17.10;;;6.55;;
60086;SDS011;45960;53.630;55.972;2023-07-29T04:21:50;12.25;;;6.40;;
60086;SDS011;45960;53.630;55.972;2023-07-29T04:22:51;12.55;;;5.90;;
60086;SDS011;45960;53.630;55.972;2023-07-29T04:23:53;16.50;;;6.53;;
60086;SDS011;45960;53.630;55.972;2023-07-29T04:24:54;11.35;;;5.85;;
60086;SDS011;45960;53.630;55.972;2023-07-29T04:25:55;9.75;;;6.35;;
60086;SDS011;45960;53.630;55.972;2023-07-29T04:26:56;13.77;;;6.57;;
60086;SDS011;45960;53.630;55.972;2023-07-29T04:27:57;13.43;;;5.70;;
60086;SDS011;45960;53.630;55.972;2023-07-29T04:28:58;14.35;;;6.32;;
60086;SDS011;45960;53.630;55.972;2023-07-29T04:29:59;11.55;;;6.22;;
60086;SDS011;45960;53.630;55.972;2023-07-29T04:31:00;11.40;;;6.43;;
60086;SDS011;45960;53.630;55.972;2023-07-29T04:32:02;11.98;;;6.45;;
60086;SDS011;45960;53.630;55.972;2023-07-29T04:33:04;19.17;;;6.68;;
60086;SDS011;45960;53.630;55.972;2023-07-29T04:34:05;16.83;;;6.40;;
60086;SDS011;45960;53.630;55.972;2023-07-29T04:35:06;9.15;;;5.90;;
60086;SDS011;45960;53.630;55.972;2023-07-29T04:36:11;15.55;;;6.63;;
60086;SDS011;45960;53.630;55.972;2023-07-29T04:37:12;15.52;;;6.32;;
60086;SDS011;45960;53.630;55.972;2023-07-29T04:38:13;13.70;;;6.63;;
60086;SDS011;45960;53.630;55.972;2023-07-29T04:39:14;17.52;;;6.80;;
60086;SDS011;45960;53.630;55.972;2023-07-29T04:40:15;19.05;;;7.28;;
60086;SDS011;45960;53.630;55.972;2023-07-29T04:41:16;25.83;;;6.55;;
60086;SDS011;45960;53.630;55.972;2023-07-29T04:42:17;13.45;;;6.00;;
60086;SDS011;45960;53.630;55.972;2023-07-29T04:43:18;15.57;;;5.97;;
60086;SDS011;45960;53.630;55.972;2023-07-29T04:44:20;14.48;;;6.88;;
60086;SDS011;45960;53.630;55.972;2023-07-29T04:45:21;11.40;;;6.20;;
60086;SDS011;45960;53.630;55.972;2023-07-29T04:46:23;15.65;;;6.45;;
60086;SDS011;45960;53.630;55.972;2023-07-29T04:47:24;12.63;;;6.45;;
60086;SDS011;45960;53.630;55.972;2023-07-29T04:48:25;18.75;;;6.47;;
60086;SDS011;45960;53.630;55.972;2023-07-29T04:49:26;10.35;;;5.50;;
60086;SDS011;45960;53.630;55.972;2023-07-29T04:50:27;12.75;;;6.65;;
60086;SDS011;45960;53.630;55.972;2023-07-29T04:51:28;12.25;;;6.40;;
60086;SDS011;45960;53.630;55.972;2023-07-29T04:52:29;28.35;;;7.38;;
60086;SDS011;45960;53.630;55.972;2023-07-29T04:53:30;18.80;;;5.82;;
60086;SDS011;45960;53.630;55.972;2023-07-29T04:54:32;14.98;;;6.13;;
60086;SDS011;45960;53.630;55.972;2023-07-29T04:55:32;14.82;;;5.63;;
60086;SDS011;45960;53.630;55.972;2023-07-29T04:56:33;38.63;;;7.57;;
60086;SDS011;45960;53.630;55.972;2023-07-29T04:57:35;25.92;;;6.32;;
60086;SDS011;45960;53.630;55.972;2023-07-29T04:58:36;20.20;;;6.13;;
60086;SDS011;45960;53.630;55.972;2023-07-29T04:59:37;15.82;;;5.88;;
60086;SDS011;45960;53.630;55.972;2023-07-29T05:00:38;21.35;;;6.55;;
60086;SDS011;45960;53.630;55.972;2023-07-29T05:01:39;11.65;;;5.97;;
60086;SDS011;45960;53.630;55.972;2023-07-29T05:02:40;18.15;;;5.68;;
60086;SDS011;45960;53.630;55.972;2023-07-29T05:03:41;52.38;;;8.45;;
60086;SDS011;45960;53.630;55.972;2023-07-29T05:04:42;17.75;;;6.40;;
60086;SDS011;45960;53.630;55.972;2023-07-29T05:05:44;12.65;;;5.65;;
60086;SDS011;45960;53.630;55.972;2023-07-29T05:06:45;12.75;;;6.03;;
60086;SDS011;45960;53.630;55.972;2023-07-29T05:07:46;23.10;;;6.47;;
60086;SDS011;45960;53.630;55.972;2023-07-29T05:08:47;14.48;;;6.03;;
60086;SDS011;45960;53.630;55.972;2023-07-29T05:09:48;13.98;;;5.63;;
60086;SDS011;45960;53.630;55.972;2023-07-29T05:10:49;25.25;;;7.05;;
60086;SDS011;45960;53.630;55.972;2023-07-29T05:11:50;7.20;;;4.50;;
60086;SDS011;45960;53.630;55.972;2023-07-29T05:12:52;20.30;;;6.80;;
60086;SDS011;45960;53.630;55.972;2023-07-29T05:13:53;12.82;;;5.20;;
60086;SDS011;45960;53.630;55.972;2023-07-29T05:14:54;26.23;;;7.28;;
60086;SDS011;45960;53.630;55.972;2023-07-29T05:15:55;11.88;;;5.38;;
60086;SDS011;45960;53.630;55.972;2023-07-29T05:16:56;19.27;;;7.25;;
60086;SDS011;45960;53.630;55.972;2023-07-29T05:17:57;27.73;;;8.38;;
60086;SDS011;45960;53.630;55.972;2023-07-29T05:18:58;48.70;;;12.65;;
60086;SDS011;45960;53.630;55.972;2023-07-29T05:19:59;36.25;;;7.20;;
60086;SDS011;45960;53.630;55.972;2023-07-29T05:21:00;21.65;;;7.38;;
60086;SDS011;45960;53.630;55.972;2023-07-29T05:22:02;40.83;;;10.38;;
60086;SDS011;45960;53.630;55.972;2023-07-29T05:23:03;32.17;;;8.82;;
60086;SDS011;45960;53.630;55.972;2023-07-29T05:24:04;41.67;;;12.70;;
60086;SDS011;45960;53.630;55.972;2023-07-29T05:25:05;24.55;;;8.07;;
60086;SDS011;45960;53.630;55.972;2023-07-29T05:26:07;39.47;;;10.65;;
60086;SDS011;45960;53.630;55.972;2023-07-29T05:27:08;14.15;;;5.95;;
60086;SDS011;45960;53.630;55.972;2023-07-29T05:28:09;33.03;;;11.32;;
60086;SDS011;45960;53.630;55.972;2023-07-29T05:29:10;23.25;;;7.15;;
60086;SDS011;45960;53.630;55.972;2023-07-29T05:30:11;41.03;;;11.48;;
60086;SDS011;45960;53.630;55.972;2023-07-29T05:31:12;16.80;;;7.13;;
60086;SDS011;45960;53.630;55.972;2023-07-29T05:32:13;39.20;;;11.13;;
60086;SDS011;45960;53.630;55.972;2023-07-29T05:33:16;17.25;;;5.28;;
60086;SDS011;45960;53.630;55.972;2023-07-29T05:34:17;26.42;;;7.60;;
60086;SDS011;45960;53.630;55.972;2023-07-29T05:35:18;26.10;;;7.05;;
60086;SDS011;45960;53.630;55.972;2023-07-29T05:36:20;35.83;;;9.48;;
60086;SDS011;45960;53.630;55.972;2023-07-29T05:37:21;26.75;;;9.95;;
60086;SDS011;45960;53.630;55.972;2023-07-29T05:38:22;8.52;;;4.50;;
60086;SDS011;45960;53.630;55.972;2023-07-29T05:39:22;9.57;;;5.13;;
60086;SDS011;45960;53.630;55.972;2023-07-29T05:40:24;46.05;;;12.60;;
60086;SDS011;45960;53.630;55.972;2023-07-29T05:41:26;33.45;;;9.60;;
60086;SDS011;45960;53.630;55.972;2023-07-29T05:42:28;12.65;;;4.65;;
60086;SDS011;45960;53.630;55.972;2023-07-29T05:43:30;29.33;;;10.05;;
60086;SDS011;45960;53.630;55.972;2023-07-29T05:44:31;27.80;;;8.63;;
60086;SDS011;45960;53.630;55.972;2023-07-29T05:45:32;10.05;;;5.32;;
60086;SDS011;45960;53.630;55.972;2023-07-29T05:46:33;34.00;;;9.73;;
60086;SDS011;45960;53.630;55.972;2023-07-29T05:47:34;12.80;;;4.85;;
60086;SDS011;45960;53.630;55.972;2023-07-29T05:48:35;15.18;;;4.75;;
60086;SDS011;45960;53.630;55.972;2023-07-29T05:49:37;15.38;;;5.60;;
60086;SDS011;45960;53.630;55.972;2023-07-29T05:50:39;19.48;;;5.93;;
60086;SDS011;45960;53.630;55.972;2023-07-29T05:51:40;24.13;;;6.85;;
60086;SDS011;45960;53.630;55.972;2023-07-29T05:52:41;28.02;;;8.20;;
60086;SDS011;45960;53.630;55.972;2023-07-29T05:53:42;31.15;;;8.68;;
60086;SDS011;45960;53.630;55.972;2023-07-29T05:54:43;13.55;;;4.50;;
60086;SDS011;45960;53.630;55.972;2023-07-29T05:55:45;6.93;;;4.00;;
60086;SDS011;45960;53.630;55.972;2023-07-29T05:56:46;21.60;;;7.00;;
60086;SDS011;45960;53.630;55.972;2023-07-29T05:57:47;7.57;;;3.75;;
60086;SDS011;45960;53.630;55.972;2023-07-29T05:58:49;8.77;;;3.80;;
60086;SDS011;45960;53.630;55.972;2023-07-29T05:59:52;16.65;;;5.65;;
60086;SDS011;45960;53.630;55.972;2023-07-29T06:00:53;9.55;;;4.20;;
60086;SDS011;45960;53.630;55.972;2023-07-29T06:01:55;17.10;;;5.07;;
60086;SDS011;45960;53.630;55.972;2023-07-29T06:02:56;8.15;;;3.88;;
60086;SDS011;45960;53.630;55.972;2023-07-29T06:03:57;14.18;;;4.80;;
60086;SDS011;45960;53.630;55.972;2023-07-29T06:04:58;8.57;;;4.10;;
60086;SDS011;45960;53.630;55.972;2023-07-29T06:06:01;11.40;;;5.25;;
60086;SDS011;45960;53.630;55.972;2023-07-29T06:07:01;21.50;;;6.40;;
60086;SDS011;45960;53.630;55.972;2023-07-29T06:08:03;29.33;;;6.57;;
60086;SDS011;45960;53.630;55.972;2023-07-29T06:09:04;6.07;;;3.00;;